sensor_id;sensor_type;location;lat;lon;timestamp;pressure;altitude;pressure_sealevel;temperature;humidity
72285;BME280;60220;53.552;10.092;2023-02-20T00:01:51;101822.41;;;5.73;76.17
72285;BME280;60220;53.552;10.092;2023-02-20T00:04:18;101818.28;;;5.82;76.25
72285;BME280;60220;53.552;10.092;2023-02-20T00:06:44;101805.13;;;5.76;76.12
72285;BME280;60220;53.552;10.092;2023-02-20T00:09:10;101795.38;;;5.68;76.40
72285;BME280;60220;53.552;10.092;2023-02-20T00:11:39;101799.19;;;5.46;77.08
72285;BME280;60220;53.552;10.092;2023-02-20T00:14:05;101788.59;;;5.40;76.94
72285;BME280;60220;53.552;10.092;2023-02-20T00:16:32;101787.69;;;5.74;76.96
72285;BME280;60220;53.552;10.092;2023-02-20T00:18:58;101779.50;;;5.94;75.59
72285;BME280;60220;53.552;10.092;2023-02-20T00:21:24;101765.78;;;5.66;77.33
72285;BME280;60220;53.552;10.092;2023-02-20T00:23:52;101775.28;;;5.62;76.46
72285;BME280;60220;53.552;10.092;2023-02-20T00:26:18;101751.16;;;5.71;77.04
72285;BME280;60220;53.552;10.092;2023-02-20T00:28:45;101750.47;;;5.78;76.91
72285;BME280;60220;53.552;10.092;2023-02-20T00:31:13;101751.22;;;5.74;77.02
72285;BME280;60220;53.552;10.092;2023-02-20T00:33:40;101735.69;;;5.41;77.48
72285;BME280;60220;53.552;10.092;2023-02-20T00:36:07;101731.53;;;5.86;77.41
72285;BME280;60220;53.552;10.092;2023-02-20T00:38:38;101717.03;;;5.60;77.57
72285;BME280;60220;53.552;10.092;2023-02-20T00:41:04;101703.81;;;5.88;77.38
72285;BME280;60220;53.552;10.092;2023-02-20T00:43:32;101702.16;;;5.54;77.75
72285;BME280;60220;53.552;10.092;2023-02-20T00:46:00;101704.84;;;5.57;78.01
72285;BME280;60220;53.552;10.092;2023-02-20T00:48:26;101693.91;;;5.74;78.05
72285;BME280;60220;53.552;10.092;2023-02-20T00:50:53;101682.78;;;5.81;77.81
72285;BME280;60220;53.552;10.092;2023-02-20T00:53:21;101679.22;;;5.38;78.64
72285;BME280;60220;53.552;10.092;2023-02-20T00:55:47;101666.34;;;5.44;79.19
72285;BME280;60220;53.552;10.092;2023-02-20T00:58:13;101661.22;;;5.49;79.41
72285;BME280;60220;53.552;10.092;2023-02-20T01:00:39;101656.00;;;5.88;78.24
72285;BME280;60220;53.552;10.092;2023-02-20T01:03:07;101655.56;;;5.67;77.99
72285;BME280;60220;53.552;10.092;2023-02-20T01:05:33;101653.38;;;5.86;78.08
72285;BME280;60220;53.552;10.092;2023-02-20T01:08:00;101653.78;;;5.66;77.58
72285;BME280;60220;53.552;10.092;2023-02-20T01:10:26;101659.66;;;5.55;78.56
72285;BME280;60220;53.552;10.092;2023-02-20T01:12:52;101653.81;;;6.06;77.87
72285;BME280;60220;53.552;10.092;2023-02-20T01:15:18;101656.34;;;5.64;77.75
72285;BME280;60220;53.552;10.092;2023-02-20T01:17:45;101646.03;;;5.67;78.61
72285;BME280;60220;53.552;10.092;2023-02-20T01:20:11;101656.78;;;5.84;77.89
72285;BME280;60220;53.552;10.092;2023-02-20T01:22:40;101658.94;;;5.62;77.94
72285;BME280;60220;53.552;10.092;2023-02-20T01:25:07;101647.53;;;5.98;77.50
72285;BME280;60220;53.552;10.092;2023-02-20T01:27:33;101656.31;;;5.61;78.13
72285;BME280;60220;53.552;10.092;2023-02-20T01:29:59;101624.44;;;5.73;77.75
72285;BME280;60220;53.552;10.092;2023-02-20T01:32:25;101624.78;;;5.89;77.99
72285;BME280;60220;53.552;10.092;2023-02-20T01:34:53;101627.34;;;5.88;77.80
72285;BME280;60220;53.552;10.092;2023-02-20T01:37:20;101632.69;;;5.92;77.62
72285;BME280;60220;53.552;10.092;2023-02-20T01:39:46;101625.34;;;6.18;76.83
72285;BME280;60220;53.552;10.092;2023-02-20T01:42:17;101617.91;;;5.93;77.58
72285;BME280;60220;53.552;10.092;2023-02-20T01:44:50;101614.72;;;6.06;77.12
72285;BME280;60220;53.552;10.092;2023-02-20T01:47:18;101604.16;;;6.00;77.69
72285;BME280;60220;53.552;10.092;2023-02-20T01:49:47;101609.13;;;5.88;78.15
72285;BME280;60220;53.552;10.092;2023-02-20T01:52:17;101604.78;;;5.87;77.81
72285;BME280;60220;53.552;10.092;2023-02-20T01:54:46;101580.69;;;5.56;78.09
72285;BME280;60220;53.552;10.092;2023-02-20T01:57:19;101584.91;;;5.51;79.91
72285;BME280;60220;53.552;10.092;2023-02-20T01:59:48;101568.84;;;5.74;79.42
72285;BME280;60220;53.552;10.092;2023-02-20T02:02:15;101562.50;;;6.03;78.15
72285;BME280;60220;53.552;10.092;2023-02-20T02:04:44;101555.75;;;6.13;77.39
72285;BME280;60220;53.552;10.092;2023-02-20T02:07:12;101550.16;;;6.41;76.55
72285;BME280;60220;53.552;10.092;2023-02-20T02:09:43;101547.94;;;5.68;77.39
72285;BME280;60220;53.552;10.092;2023-02-20T02:12:12;101528.84;;;6.15;77.17
72285;BME280;60220;53.552;10.092;2023-02-20T02:14:41;101518.28;;;6.06;77.08
72285;BME280;60220;53.552;10.092;2023-02-20T02:17:28;101521.00;;;6.12;77.19
72285;BME280;60220;53.552;10.092;2023-02-20T02:26:36;101519.25;;;6.11;77.53
72285;BME280;60220;53.552;10.092;2023-02-20T02:29:20;101523.97;;;6.35;77.04
72285;BME280;60220;53.552;10.092;2023-02-20T02:32:16;101510.91;;;6.33;76.79
72285;BME280;60220;53.552;10.092;2023-02-20T02:34:54;101511.13;;;6.45;76.44
72285;BME280;60220;53.552;10.092;2023-02-20T02:37:30;101516.34;;;6.45;76.18
72285;BME280;60220;53.552;10.092;2023-02-20T02:40:02;101523.31;;;6.46;76.31
72285;BME280;60220;53.552;10.092;2023-02-20T02:42:37;101522.72;;;6.13;76.67
72285;BME280;60220;53.552;10.092;2023-02-20T02:45:11;101531.72;;;6.30;76.65
72285;BME280;60220;53.552;10.092;2023-02-20T02:47:48;101531.97;;;6.45;76.82
72285;BME280;60220;53.552;10.092;2023-02-20T02:50:18;101519.00;;;6.50;76.58
72285;BME280;60220;53.552;10.092;2023-02-20T02:52:49;101516.34;;;6.45;77.08
72285;BME280;60220;53.552;10.092;2023-02-20T02:55:20;101519.34;;;6.17;77.41
72285;BME280;60220;53.552;10.092;2023-02-20T02:57:49;101497.84;;;6.30;77.80
72285;BME280;60220;53.552;10.092;2023-02-20T03:00:19;101481.03;;;6.67;77.35
72285;BME280;60220;53.552;10.092;2023-02-20T03:02:52;101480.63;;;6.41;77.45
72285;BME280;60220;53.552;10.092;2023-02-20T03:05:20;101469.25;;;6.36;78.11
72285;BME280;60220;53.552;10.092;2023-02-20T03:07:51;101467.69;;;6.47;78.37
72285;BME280;60220;53.552;10.092;2023-02-20T03:10:20;101475.28;;;6.32;78.85
72285;BME280;60220;53.552;10.092;2023-02-20T03:12:58;101463.66;;;6.12;79.35
72285;BME280;60220;53.552;10.092;2023-02-20T03:15:31;101466.69;;;5.87;80.23
72285;BME280;60220;53.552;10.092;2023-02-20T03:18:10;101478.59;;;6.22;80.43
72285;BME280;60220;53.552;10.092;2023-02-20T03:20:41;101471.09;;;6.43;80.06
72285;BME280;60220;53.552;10.092;2023-02-20T03:23:14;101467.72;;;6.51;79.12
72285;BME280;60220;53.552;10.092;2023-02-20T03:25:47;101468.06;;;6.72;78.76
72285;BME280;60220;53.552;10.092;2023-02-20T03:28:18;101464.63;;;6.76;78.62
72285;BME280;60220;53.552;10.092;2023-02-20T03:30:49;101459.28;;;6.67;78.98
72285;BME280;60220;53.552;10.092;2023-02-20T03:33:21;101450.56;;;6.68;78.17
72285;BME280;60220;53.552;10.092;2023-02-20T03:36:10;101464.84;;;6.91;78.40
72285;BME280;60220;53.552;10.092;2023-02-20T03:38:59;101462.75;;;6.66;78.76
72285;BME280;60220;53.552;10.092;2023-02-20T03:41:46;101456.69;;;6.67;78.22
72285;BME280;60220;53.552;10.092;2023-02-20T03:44:31;101444.56;;;6.73;77.90
72285;BME280;60220;53.552;10.092;2023-02-20T03:47:00;101451.78;;;6.92;76.78
72285;BME280;60220;53.552;10.092;2023-02-20T03:49:31;101438.56;;;6.77;77.01
72285;BME280;60220;53.552;10.092;2023-02-20T03:51:59;101432.47;;;6.77;77.46
72285;BME280;60220;53.552;10.092;2023-02-20T03:54:27;101424.69;;;6.81;77.52
72285;BME280;60220;53.552;10.092;2023-02-20T03:57:01;101429.38;;;7.07;76.04
72285;BME280;60220;53.552;10.092;2023-02-20T03:59:34;101454.59;;;6.44;77.81
72285;BME280;60220;53.552;10.092;2023-02-20T04:02:07;101456.28;;;7.01;77.52
72285;BME280;60220;53.552;10.092;2023-02-20T04:04:39;101446.91;;;7.17;76.60
72285;BME280;60220;53.552;10.092;2023-02-20T04:07:10;101438.81;;;6.97;77.09
72285;BME280;60220;53.552;10.092;2023-02-20T04:09:40;101445.41;;;7.37;75.39
72285;BME280;60220;53.552;10.092;2023-02-20T04:12:14;101432.63;;;6.90;76.34
72285;BME280;60220;53.552;10.092;2023-02-20T04:14:43;101423.00;;;6.85;77.94
72285;BME280;60220;53.552;10.092;2023-02-20T04:17:14;101410.66;;;6.72;77.57
72285;BME280;60220;53.552;10.092;2023-02-20T04:19:41;101409.41;;;6.45;78.11
72285;BME280;60220;53.552;10.092;2023-02-20T04:22:11;101416.66;;;6.66;78.28
72285;BME280;60220;53.552;10.092;2023-02-20T04:24:42;101400.00;;;6.57;78.57
72285;BME280;60220;53.552;10.092;2023-02-20T04:27:10;101392.50;;;6.81;77.33
72285;BME280;60220;53.552;10.092;2023-02-20T04:29:37;101383.03;;;6.89;76.73
72285;BME280;60220;53.552;10.092;2023-02-20T04:32:03;101383.41;;;6.50;77.59
72285;BME280;60220;53.552;10.092;2023-02-20T04:34:29;101381.03;;;6.68;78.58
72285;BME280;60220;53.552;10.092;2023-02-20T04:37:05;101373.66;;;7.05;77.33
72285;BME280;60220;53.552;10.092;2023-02-20T04:39:34;101370.28;;;6.42;79.00
72285;BME280;60220;53.552;10.092;2023-02-20T04:42:01;101371.47;;;6.67;78.81
72285;BME280;60220;53.552;10.092;2023-02-20T04:44:27;101370.72;;;6.79;78.07
72285;BME280;60220;53.552;10.092;2023-02-20T04:47:00;101350.41;;;6.52;78.31
72285;BME280;60220;53.552;10.092;2023-02-20T04:49:27;101350.97;;;6.31;79.87
72285;BME280;60220;53.552;10.092;2023-02-20T04:51:53;101341.66;;;6.50;78.98
72285;BME280;60220;53.552;10.092;2023-02-20T04:54:19;101334.59;;;6.41;80.24
72285;BME280;60220;53.552;10.092;2023-02-20T04:56:46;101340.22;;;6.72;79.38
72285;BME280;60220;53.552;10.092;2023-02-20T04:59:13;101346.13;;;6.57;79.27
72285;BME280;60220;53.552;10.092;2023-02-20T05:01:39;101332.19;;;6.57;79.19
72285;BME280;60220;53.552;10.092;2023-02-20T05:04:08;101337.13;;;6.35;80.13
72285;BME280;60220;53.552;10.092;2023-02-20T05:06:39;101339.22;;;6.62;79.56
72285;BME280;60220;53.552;10.092;2023-02-20T05:09:06;101341.00;;;6.65;79.14
72285;BME280;60220;53.552;10.092;2023-02-20T05:11:35;101360.19;;;6.70;79.23
72285;BME280;60220;53.552;10.092;2023-02-20T05:14:01;101349.53;;;6.53;79.41
72285;BME280;60220;53.552;10.092;2023-02-20T05:16:28;101356.47;;;6.53;79.42
72285;BME280;60220;53.552;10.092;2023-02-20T05:18:55;101321.78;;;6.60;78.98
72285;BME280;60220;53.552;10.092;2023-02-20T05:21:21;101331.44;;;6.65;78.96
72285;BME280;60220;53.552;10.092;2023-02-20T05:24:06;101322.69;;;6.62;79.54
72285;BME280;60220;53.552;10.092;2023-02-20T05:26:32;101313.06;;;6.58;79.26
72285;BME280;60220;53.552;10.092;2023-02-20T05:29:00;101317.47;;;6.63;79.48
72285;BME280;60220;53.552;10.092;2023-02-20T05:31:26;101316.75;;;6.75;79.55
72285;BME280;60220;53.552;10.092;2023-02-20T05:33:52;101309.66;;;6.63;79.42
72285;BME280;60220;53.552;10.092;2023-02-20T05:36:18;101306.13;;;6.57;79.36
72285;BME280;60220;53.552;10.092;2023-02-20T05:38:44;101292.50;;;6.82;79.47
72285;BME280;60220;53.552;10.092;2023-02-20T05:41:14;101287.22;;;6.76;79.27
72285;BME280;60220;53.552;10.092;2023-02-20T05:43:40;101286.19;;;6.63;79.24
72285;BME280;60220;53.552;10.092;2023-02-20T05:46:06;101274.06;;;6.67;80.43
72285;BME280;60220;53.552;10.092;2023-02-20T05:48:32;101282.78;;;6.67;80.08
72285;BME280;60220;53.552;10.092;2023-02-20T05:50:59;101275.56;;;6.46;79.74
72285;BME280;60220;53.552;10.092;2023-02-20T05:53:27;101261.03;;;6.67;79.84
72285;BME280;60220;53.552;10.092;2023-02-20T05:55:55;101259.13;;;6.54;79.85
72285;BME280;60220;53.552;10.092;2023-02-20T05:58:22;101267.13;;;6.70;80.31
72285;BME280;60220;53.552;10.092;2023-02-20T06:00:48;101254.00;;;6.61;79.49
72285;BME280;60220;53.552;10.092;2023-02-20T06:03:15;101247.16;;;6.74;79.52
72285;BME280;60220;53.552;10.092;2023-02-20T06:05:41;101250.75;;;6.82;79.64
72285;BME280;60220;53.552;10.092;2023-02-20T06:08:07;101241.06;;;6.73;79.68
72285;BME280;60220;53.552;10.092;2023-02-20T06:10:33;101239.28;;;6.66;80.49
72285;BME280;60220;53.552;10.092;2023-02-20T06:13:00;101234.69;;;6.45;81.10
72285;BME280;60220;53.552;10.092;2023-02-20T06:15:26;101235.69;;;6.58;81.19
72285;BME280;60220;53.552;10.092;2023-02-20T06:17:54;101225.97;;;6.43;81.03
72285;BME280;60220;53.552;10.092;2023-02-20T06:20:20;101227.22;;;6.77;81.32
72285;BME280;60220;53.552;10.092;2023-02-20T06:22:46;101229.03;;;6.86;80.31
72285;BME280;60220;53.552;10.092;2023-02-20T06:25:13;101228.06;;;6.78;80.58
72285;BME280;60220;53.552;10.092;2023-02-20T06:27:39;101230.56;;;6.66;80.33
72285;BME280;60220;53.552;10.092;2023-02-20T06:30:06;101225.56;;;6.88;79.70
72285;BME280;60220;53.552;10.092;2023-02-20T06:32:34;101233.38;;;6.84;80.69
72285;BME280;60220;53.552;10.092;2023-02-20T06:35:00;101234.75;;;6.53;80.87
72285;BME280;60220;53.552;10.092;2023-02-20T06:37:26;101227.19;;;6.74;80.79
72285;BME280;60220;53.552;10.092;2023-02-20T06:39:52;101243.94;;;6.96;79.99
72285;BME280;60220;53.552;10.092;2023-02-20T06:42:19;101236.88;;;6.86;80.52
72285;BME280;60220;53.552;10.092;2023-02-20T06:44:45;101234.28;;;6.89;80.56
72285;BME280;60220;53.552;10.092;2023-02-20T06:47:12;101249.31;;;7.14;79.35
72285;BME280;60220;53.552;10.092;2023-02-20T06:49:38;101245.53;;;6.82;80.43
72285;BME280;60220;53.552;10.092;2023-02-20T06:52:06;101237.78;;;6.92;80.66
72285;BME280;60220;53.552;10.092;2023-02-20T06:54:33;101245.91;;;7.21;79.57
72285;BME280;60220;53.552;10.092;2023-02-20T06:56:59;101242.09;;;6.89;80.93
72285;BME280;60220;53.552;10.092;2023-02-20T06:59:26;101245.66;;;6.96;80.22
72285;BME280;60220;53.552;10.092;2023-02-20T07:01:55;101232.66;;;7.00;80.49
72285;BME280;60220;53.552;10.092;2023-02-20T07:04:23;101224.94;;;7.12;79.85
72285;BME280;60220;53.552;10.092;2023-02-20T07:06:51;101220.66;;;7.23;79.72
72285;BME280;60220;53.552;10.092;2023-02-20T07:09:17;101220.75;;;7.34;79.72
72285;BME280;60220;53.552;10.092;2023-02-20T07:11:44;101234.41;;;7.03;80.06
72285;BME280;60220;53.552;10.092;2023-02-20T07:14:10;101242.25;;;7.04;80.95
72285;BME280;60220;53.552;10.092;2023-02-20T07:16:38;101242.25;;;7.04;80.59
72285;BME280;60220;53.552;10.092;2023-02-20T07:19:06;101235.53;;;7.33;81.10
72285;BME280;60220;53.552;10.092;2023-02-20T07:21:32;101233.84;;;7.37;80.10
72285;BME280;60220;53.552;10.092;2023-02-20T07:24:00;101236.41;;;7.32;80.27
72285;BME280;60220;53.552;10.092;2023-02-20T07:26:28;101244.22;;;7.26;81.00
72285;BME280;60220;53.552;10.092;2023-02-20T07:28:55;101239.06;;;7.35;80.07
72285;BME280;60220;53.552;10.092;2023-02-20T07:31:23;101239.81;;;7.21;81.60
72285;BME280;60220;53.552;10.092;2023-02-20T07:33:49;101235.22;;;6.96;81.85
72285;BME280;60220;53.552;10.092;2023-02-20T07:36:16;101230.38;;;7.43;81.21
72285;BME280;60220;53.552;10.092;2023-02-20T07:38:42;101231.22;;;7.39;80.95
72285;BME280;60220;53.552;10.092;2023-02-20T07:41:09;101235.41;;;7.18;82.15
72285;BME280;60220;53.552;10.092;2023-02-20T07:43:35;101226.78;;;7.25;82.92
72285;BME280;60220;53.552;10.092;2023-02-20T07:46:01;101225.94;;;7.29;82.46
72285;BME280;60220;53.552;10.092;2023-02-20T07:48:27;101228.56;;;7.29;82.42
72285;BME280;60220;53.552;10.092;2023-02-20T07:50:56;101235.38;;;7.11;83.04
72285;BME280;60220;53.552;10.092;2023-02-20T07:53:22;101205.06;;;7.29;83.54
72285;BME280;60220;53.552;10.092;2023-02-20T07:55:50;101213.00;;;7.42;82.51
72285;BME280;60220;53.552;10.092;2023-02-20T07:58:16;101204.31;;;7.49;82.62
72285;BME280;60220;53.552;10.092;2023-02-20T08:00:42;101191.03;;;7.15;82.91
72285;BME280;60220;53.552;10.092;2023-02-20T08:03:08;101192.81;;;7.22;83.85
72285;BME280;60220;53.552;10.092;2023-02-20T08:05:34;101195.50;;;7.30;83.23
72285;BME280;60220;53.552;10.092;2023-02-20T08:08:01;101172.19;;;7.60;82.78
72285;BME280;60220;53.552;10.092;2023-02-20T08:10:27;101183.41;;;7.47;82.78
72285;BME280;60220;53.552;10.092;2023-02-20T08:12:56;101179.59;;;7.03;84.42
72285;BME280;60220;53.552;10.092;2023-02-20T08:15:22;101176.50;;;7.54;83.80
72285;BME280;60220;53.552;10.092;2023-02-20T08:17:48;101176.50;;;7.54;82.80
72285;BME280;60220;53.552;10.092;2023-02-20T08:20:16;101177.34;;;7.47;84.05
72285;BME280;60220;53.552;10.092;2023-02-20T08:22:42;101176.53;;;7.57;82.98
72285;BME280;60220;53.552;10.092;2023-02-20T08:25:10;101176.16;;;7.07;84.43
72285;BME280;60220;53.552;10.092;2023-02-20T08:27:36;101180.75;;;7.43;84.59
72285;BME280;60220;53.552;10.092;2023-02-20T08:30:04;101177.28;;;7.39;84.37
72285;BME280;60220;53.552;10.092;2023-02-20T08:32:30;101175.47;;;7.33;83.94
72285;BME280;60220;53.552;10.092;2023-02-20T08:34:56;101161.72;;;7.59;83.99
72285;BME280;60220;53.552;10.092;2023-02-20T08:37:22;101164.34;;;7.60;84.26
72285;BME280;60220;53.552;10.092;2023-02-20T08:39:48;101165.22;;;7.62;83.22
72285;BME280;60220;53.552;10.092;2023-02-20T08:42:15;101146.81;;;7.40;85.17
72285;BME280;60220;53.552;10.092;2023-02-20T08:44:42;101144.34;;;7.68;84.76
72285;BME280;60220;53.552;10.092;2023-02-20T08:47:08;101140.06;;;7.84;83.94
72285;BME280;60220;53.552;10.092;2023-02-20T08:49:34;101136.31;;;7.33;84.90
72285;BME280;60220;53.552;10.092;2023-02-20T08:52:00;101139.81;;;7.35;85.64
72285;BME280;60220;53.552;10.092;2023-02-20T08:54:28;101151.22;;;7.50;85.62
72285;BME280;60220;53.552;10.092;2023-02-20T08:56:53;101143.38;;;7.53;85.63
72285;BME280;60220;53.552;10.092;2023-02-20T08:59:20;101145.09;;;7.48;86.12
72285;BME280;60220;53.552;10.092;2023-02-20T09:01:46;101134.72;;;7.57;86.28
72285;BME280;60220;53.552;10.092;2023-02-20T09:04:15;101126.00;;;7.55;86.28
72285;BME280;60220;53.552;10.092;2023-02-20T09:06:41;101126.91;;;7.63;86.30
72285;BME280;60220;53.552;10.092;2023-02-20T09:09:07;101113.84;;;7.63;86.99
72285;BME280;60220;53.552;10.092;2023-02-20T09:11:33;101102.50;;;7.52;87.55
72285;BME280;60220;53.552;10.092;2023-02-20T09:14:00;101099.94;;;7.67;88.44
72285;BME280;60220;53.552;10.092;2023-02-20T09:16:27;101098.06;;;7.40;89.03
72285;BME280;60220;53.552;10.092;2023-02-20T09:18:55;101091.16;;;7.50;89.88
72285;BME280;60220;53.552;10.092;2023-02-20T09:21:21;101097.16;;;7.38;91.31
72285;BME280;60220;53.552;10.092;2023-02-20T09:23:47;101089.44;;;7.58;91.63
72285;BME280;60220;53.552;10.092;2023-02-20T09:26:13;101097.31;;;7.64;91.60
72285;BME280;60220;53.552;10.092;2023-02-20T09:28:39;101088.47;;;7.39;92.37
72285;BME280;60220;53.552;10.092;2023-02-20T09:31:06;101089.38;;;7.47;92.75
72285;BME280;60220;53.552;10.092;2023-02-20T09:33:32;101090.31;;;7.63;93.49
72285;BME280;60220;53.552;10.092;2023-02-20T09:36:01;101105.09;;;7.55;94.05
72285;BME280;60220;53.552;10.092;2023-02-20T09:38:29;101092.94;;;7.60;94.03
72285;BME280;60220;53.552;10.092;2023-02-20T09:40:57;101099.06;;;7.66;94.54
72285;BME280;60220;53.552;10.092;2023-02-20T09:43:38;101093.00;;;7.70;94.68
72285;BME280;60220;53.552;10.092;2023-02-20T09:46:11;101092.94;;;7.63;94.35
72285;BME280;60220;53.552;10.092;2023-02-20T09:48:50;101092.94;;;7.60;94.85
72285;BME280;60220;53.552;10.092;2023-02-20T09:51:20;101084.25;;;7.61;95.14
72285;BME280;60220;53.552;10.092;2023-02-20T09:53:52;101073.75;;;7.58;95.00
72285;BME280;60220;53.552;10.092;2023-02-20T09:56:24;101067.63;;;7.50;95.01
72285;BME280;60220;53.552;10.092;2023-02-20T09:58:55;101074.75;;;7.84;94.85
72285;BME280;60220;53.552;10.092;2023-02-20T10:01:25;101072.97;;;7.75;95.04
72285;BME280;60220;53.552;10.092;2023-02-20T10:03:56;101059.03;;;7.79;93.91
72285;BME280;60220;53.552;10.092;2023-02-20T10:06:24;101059.94;;;7.92;93.51
72285;BME280;60220;53.552;10.092;2023-02-20T10:08:51;101085.25;;;7.96;92.63
72285;BME280;60220;53.552;10.092;2023-02-20T10:11:28;101059.91;;;7.83;93.24
72285;BME280;60220;53.552;10.092;2023-02-20T10:14:01;101070.47;;;8.13;91.93
72285;BME280;60220;53.552;10.092;2023-02-20T10:16:40;101071.34;;;8.20;92.16
72285;BME280;60220;53.552;10.092;2023-02-20T10:19:16;101069.56;;;7.99;92.42
72285;BME280;60220;53.552;10.092;2023-02-20T10:21:55;101073.09;;;8.18;91.95
72285;BME280;60220;53.552;10.092;2023-02-20T10:24:36;101066.13;;;8.28;91.79
72285;BME280;60220;53.552;10.092;2023-02-20T10:27:18;101073.13;;;8.26;91.43
72285;BME280;60220;53.552;10.092;2023-02-20T10:29:48;101060.88;;;8.17;91.12
72285;BME280;60220;53.552;10.092;2023-02-20T10:32:17;101054.84;;;8.41;90.65
72285;BME280;60220;53.552;10.092;2023-02-20T10:34:53;101048.75;;;8.36;90.85
72285;BME280;60220;53.552;10.092;2023-02-20T10:37:24;101051.31;;;8.27;90.41
72285;BME280;60220;53.552;10.092;2023-02-20T10:39:55;101047.88;;;8.40;90.55
72285;BME280;60220;53.552;10.092;2023-02-20T10:42:28;101043.53;;;8.49;90.13
72285;BME280;60220;53.552;10.092;2023-02-20T10:45:00;101041.78;;;8.59;89.22
72285;BME280;60220;53.552;10.092;2023-02-20T10:47:35;101041.78;;;8.67;88.63
72285;BME280;60220;53.552;10.092;2023-02-20T10:50:13;101053.97;;;8.83;88.30
72285;BME280;60220;53.552;10.092;2023-02-20T10:52:45;101055.72;;;8.73;88.38
72285;BME280;60220;53.552;10.092;2023-02-20T10:55:16;101042.63;;;8.79;87.73
72285;BME280;60220;53.552;10.092;2023-02-20T10:57:48;101045.25;;;8.85;87.75
72285;BME280;60220;53.552;10.092;2023-02-20T11:00:19;101042.63;;;8.73;88.06
72285;BME280;60220;53.552;10.092;2023-02-20T11:02:52;101048.72;;;8.89;87.40
72285;BME280;60220;53.552;10.092;2023-02-20T11:05:24;101043.50;;;8.80;87.55
72285;BME280;60220;53.552;10.092;2023-02-20T11:07:54;101037.41;;;8.91;87.47
72285;BME280;60220;53.552;10.092;2023-02-20T11:10:20;101033.91;;;8.85;86.61
72285;BME280;60220;53.552;10.092;2023-02-20T11:12:49;101056.56;;;8.93;86.83
72285;BME280;60220;53.552;10.092;2023-02-20T11:15:20;101058.31;;;8.97;87.03
72285;BME280;60220;53.552;10.092;2023-02-20T11:17:48;101053.94;;;8.92;86.70
72285;BME280;60220;53.552;10.092;2023-02-20T11:20:40;101040.84;;;8.92;86.35
72285;BME280;60220;53.552;10.092;2023-02-20T11:23:07;101053.09;;;9.00;86.72
72285;BME280;60220;53.552;10.092;2023-02-20T11:25:34;101038.22;;;9.07;86.85
72285;BME280;60220;53.552;10.092;2023-02-20T11:28:09;101046.03;;;9.18;86.40
72285;BME280;60220;53.552;10.092;2023-02-20T11:30:38;101062.66;;;9.04;86.49
72285;BME280;60220;53.552;10.092;2023-02-20T11:33:12;101036.47;;;9.14;85.61
72285;BME280;60220;53.552;10.092;2023-02-20T11:35:42;101049.56;;;9.07;85.90
72285;BME280;60220;53.552;10.092;2023-02-20T11:38:21;101048.66;;;9.12;85.66
72285;BME280;60220;53.552;10.092;2023-02-20T11:43:42;101030.34;;;9.21;84.54
72285;BME280;60220;53.552;10.092;2023-02-20T11:46:13;101024.19;;;9.29;84.40
72285;BME280;60220;53.552;10.092;2023-02-20T11:48:57;101037.25;;;9.46;83.42
72285;BME280;60220;53.552;10.092;2023-02-20T11:51:36;101021.38;;;9.73;82.69
72285;BME280;60220;53.552;10.092;2023-02-20T11:54:08;101024.09;;;9.52;83.11
72285;BME280;60220;53.552;10.092;2023-02-20T11:56:34;101017.09;;;9.57;82.40
72285;BME280;60220;53.552;10.092;2023-02-20T11:59:17;101006.72;;;9.34;82.88
72285;BME280;60220;53.552;10.092;2023-02-20T12:01:50;100997.94;;;9.44;82.70
72285;BME280;60220;53.552;10.092;2023-02-20T12:04:18;101007.44;;;9.65;82.24
72285;BME280;60220;53.552;10.092;2023-02-20T12:06:48;100998.63;;;9.77;81.30
72285;BME280;60220;53.552;10.092;2023-02-20T12:09:16;101004.81;;;9.70;81.59
72285;BME280;60220;53.552;10.092;2023-02-20T12:11:44;100995.19;;;9.70;81.33
72285;BME280;60220;53.552;10.092;2023-02-20T12:14:11;100984.69;;;9.73;81.40
72285;BME280;60220;53.552;10.092;2023-02-20T12:17:00;100988.22;;;9.69;80.98
72285;BME280;60220;53.552;10.092;2023-02-20T12:19:39;100982.09;;;9.70;80.76
72285;BME280;60220;53.552;10.092;2023-02-20T12:22:17;100990.00;;;9.61;81.23
72285;BME280;60220;53.552;10.092;2023-02-20T12:24:58;100986.50;;;9.59;80.79
72285;BME280;60220;53.552;10.092;2023-02-20T12:27:33;100973.47;;;9.48;80.96
72285;BME280;60220;53.552;10.092;2023-02-20T12:30:08;100984.75;;;9.64;80.78
72285;BME280;60220;53.552;10.092;2023-02-20T12:32:51;100967.97;;;9.86;79.39
72285;BME280;60220;53.552;10.092;2023-02-20T12:35:39;100985.56;;;9.72;79.36
72285;BME280;60220;53.552;10.092;2023-02-20T12:38:26;100970.66;;;9.80;79.49
72285;BME280;60220;53.552;10.092;2023-02-20T12:41:20;100951.31;;;9.97;78.36
72285;BME280;60220;53.552;10.092;2023-02-20T12:43:55;100961.00;;;9.90;78.79
72285;BME280;60220;53.552;10.092;2023-02-20T12:46:30;100959.16;;;9.98;78.09
72285;BME280;60220;53.552;10.092;2023-02-20T12:49:09;100968.84;;;9.88;79.18
72285;BME280;60220;53.552;10.092;2023-02-20T12:51:49;100962.75;;;9.91;79.14
72285;BME280;60220;53.552;10.092;2023-02-20T12:54:26;100950.47;;;9.93;79.01
72285;BME280;60220;53.552;10.092;2023-02-20T12:57:04;100959.28;;;9.83;78.77
72285;BME280;60220;53.552;10.092;2023-02-20T12:59:40;100950.53;;;9.85;78.61
72285;BME280;60220;53.552;10.092;2023-02-20T13:02:19;100953.13;;;9.87;78.67
72285;BME280;60220;53.552;10.092;2023-02-20T13:04:51;100946.94;;;9.97;78.12
72285;BME280;60220;53.552;10.092;2023-02-20T13:07:21;100945.22;;;9.96;77.98
72285;BME280;60220;53.552;10.092;2023-02-20T13:09:58;100964.53;;;9.86;79.04
72285;BME280;60220;53.552;10.092;2023-02-20T13:12:26;100951.25;;;10.06;78.24
72285;BME280;60220;53.552;10.092;2023-02-20T13:14:59;100950.47;;;9.93;79.08